test metar / taf



METAR LFGJ :
2022/08/16 16:30
LFGJ 161630Z AUTO 33008KT CAVOK 30/13 Q1008 NOSIG


TAF LFGJ :
2020/06/22 09:21
TAF LFGJ 220800Z 2209/2221 01008KT 9999 FEW035 BKN053 
      BECMG 2212/2215 CAVOK

Les commentaires sont fermés.